createdAt,value
2019-01-13T00:02:00.809Z,10.73
2019-01-13T00:07:07.480Z,10.60
2019-01-13T00:12:13.609Z,10.63
2019-01-13T00:17:20.194Z,11.17
2019-01-13T00:22:26.944Z,10.60
2019-01-13T00:27:32.270Z,10.53
2019-01-13T00:32:38.040Z,10.77
2019-01-13T00:37:43.068Z,12.00
2019-01-13T00:42:48.427Z,12.13
2019-01-13T00:47:56.697Z,11.80
2019-01-13T00:53:02.934Z,12.97
2019-01-13T00:58:08.216Z,12.93
2019-01-13T01:03:15.390Z,13.53
2019-01-13T01:08:20.885Z,12.93
2019-01-13T01:13:27.015Z,13.73
2019-01-13T01:18:34.325Z,13.70
2019-01-13T01:23:40.498Z,14.73
2019-01-13T01:28:46.251Z,15.47
2019-01-13T01:33:53.226Z,15.80
2019-01-13T01:38:59.169Z,14.63
2019-01-13T01:44:06.198Z,14.97
2019-01-13T01:49:11.554Z,15.87
2019-01-13T01:54:17.000Z,14.77
2019-01-13T01:59:25.341Z,15.33
2019-01-13T02:04:31.052Z,15.63
2019-01-13T02:09:38.353Z,15.03
2019-01-13T02:14:44.317Z,14.50
2019-01-13T02:19:51.741Z,14.70
2019-01-13T02:24:57.864Z,14.30
2019-01-13T02:30:05.322Z,14.40
2019-01-13T02:35:11.707Z,14.73
2019-01-13T02:40:22.144Z,14.67
2019-01-13T02:45:33.169Z,15.47
2019-01-13T02:50:39.102Z,16.53
2019-01-13T02:55:45.382Z,16.73
2019-01-13T03:00:57.243Z,16.13
2019-01-13T03:06:01.843Z,16.23
2019-01-13T03:11:07.919Z,15.83
2019-01-13T03:16:15.828Z,15.70
2019-01-13T03:21:23.134Z,16.73
2019-01-13T03:26:30.591Z,17.17
2019-01-13T03:31:36.059Z,18.33
2019-01-13T03:36:44.294Z,19.53
2019-01-13T03:41:50.591Z,18.37
2019-01-13T03:46:55.921Z,19.83
2019-01-13T03:52:02.444Z,20.07
2019-01-13T03:57:08.691Z,19.80
2019-01-13T04:02:15.292Z,17.80
2019-01-13T04:07:22.381Z,16.50
2019-01-13T04:12:30.519Z,17.33
2019-01-13T04:17:36.517Z,16.30
2019-01-13T04:22:44.425Z,15.00
2019-01-13T04:27:49.744Z,12.90
2019-01-13T04:32:55.432Z,12.43
2019-01-13T04:38:02.857Z,13.03
2019-01-13T04:43:08.878Z,12.13
2019-01-13T04:48:14.685Z,12.97
2019-01-13T04:53:22.287Z,13.17
2019-01-13T04:58:28.654Z,12.97
2019-01-13T05:03:35.641Z,13.70
2019-01-13T05:08:43.261Z,13.63
2019-01-13T05:13:49.097Z,13.70
2019-01-13T05:18:55.142Z,14.07
2019-01-13T05:24:02.768Z,14.50
2019-01-13T05:29:11.488Z,15.27
2019-01-13T05:34:18.353Z,15.43
2019-01-13T05:39:23.729Z,16.07
2019-01-13T05:44:31.350Z,19.30
2019-01-13T05:49:37.257Z,17.73
2019-01-13T05:54:43.513Z,18.60
2019-01-13T05:59:51.291Z,20.20
2019-01-13T06:04:57.965Z,19.07
2019-01-13T06:10:06.032Z,17.60
2019-01-13T06:15:13.951Z,16.87
2019-01-13T06:20:22.005Z,16.77
2019-01-13T06:25:27.474Z,14.90
2019-01-13T06:30:33.802Z,13.93
2019-01-13T06:35:40.811Z,13.27
2019-01-13T06:40:49.100Z,12.40
2019-01-13T06:45:56.455Z,11.30
2019-01-13T06:51:02.013Z,10.17
2019-01-13T06:56:11.229Z,8.83
2019-01-13T07:01:17.377Z,8.70
2019-01-13T07:06:24.141Z,8.03
2019-01-13T07:11:30.305Z,6.70
2019-01-13T07:16:35.933Z,6.03
2019-01-13T07:21:42.518Z,6.27
2019-01-13T07:26:48.608Z,5.40
2019-01-13T07:31:54.542Z,5.30
2019-01-13T07:37:02.213Z,5.10
2019-01-13T07:42:07.384Z,5.40
2019-01-13T07:47:12.904Z,5.60
2019-01-13T07:52:19.149Z,6.20
2019-01-13T07:57:25.934Z,6.40
2019-01-13T08:02:32.680Z,6.77
2019-01-13T08:07:40.505Z,7.90
2019-01-13T08:12:46.078Z,7.37
2019-01-13T08:17:53.856Z,6.97
2019-01-13T08:23:00.562Z,8.63
2019-01-13T08:28:07.547Z,8.17
2019-01-13T08:33:13.678Z,9.70
2019-01-13T08:38:19.801Z,9.73
2019-01-13T08:43:25.023Z,9.73
2019-01-13T08:48:31.949Z,10.30
2019-01-13T08:53:38.022Z,9.63
2019-01-13T08:58:44.678Z,9.33
2019-01-13T09:03:50.576Z,8.77
2019-01-13T09:08:57.709Z,8.43
2019-01-13T09:14:13.196Z,8.00
2019-01-13T09:19:23.953Z,7.10
2019-01-13T09:24:30.574Z,7.53
2019-01-13T09:29:42.420Z,7.53
2019-01-13T09:34:56.502Z,8.50
2019-01-13T09:40:01.697Z,8.53
2019-01-13T09:45:09.036Z,8.47
2019-01-13T09:50:17.692Z,7.93
2019-01-13T09:55:25.063Z,8.50
2019-01-13T10:00:36.289Z,8.90
2019-01-13T10:05:43.044Z,9.50
2019-01-13T10:10:47.993Z,10.27
2019-01-13T10:15:53.870Z,10.53
2019-01-13T10:21:01.514Z,10.97
2019-01-13T10:26:08.544Z,11.97
2019-01-13T10:31:15.708Z,11.57
2019-01-13T10:36:21.913Z,10.97
2019-01-13T10:41:29.441Z,11.27
2019-01-13T10:46:38.822Z,10.63
2019-01-13T10:51:43.994Z,10.43
2019-01-13T10:56:50.322Z,10.90
2019-01-13T11:01:56.321Z,10.43
2019-01-13T11:07:02.235Z,10.73
2019-01-13T11:12:08.389Z,9.53
2019-01-13T11:17:16.942Z,13.27
2019-01-13T11:22:24.572Z,10.73
2019-01-13T11:27:32.485Z,9.67
2019-01-13T11:32:38.286Z,9.40
2019-01-13T11:37:44.278Z,8.47
2019-01-13T11:42:50.805Z,8.93
2019-01-13T11:47:56.956Z,7.87
2019-01-13T11:53:05.783Z,7.60
2019-01-13T11:58:12.282Z,8.00
2019-01-13T12:03:19.248Z,7.77
2019-01-13T12:08:25.939Z,6.40
2019-01-13T12:13:47.902Z,6.70
2019-01-13T12:18:56.360Z,6.47
2019-01-13T12:24:02.335Z,5.70
2019-01-13T12:29:10.133Z,5.70
2019-01-13T12:34:16.781Z,6.40
2019-01-13T12:39:23.575Z,6.00
2019-01-13T12:44:29.883Z,5.57
2019-01-13T12:49:35.997Z,5.10
2019-01-13T12:54:42.058Z,5.67
2019-01-13T12:59:48.829Z,6.10
2019-01-13T13:04:57.906Z,5.97
2019-01-13T13:10:04.904Z,5.30
2019-01-13T13:15:10.965Z,5.37
2019-01-13T13:20:18.077Z,5.10
2019-01-13T13:25:32.009Z,5.83
2019-01-13T13:30:39.322Z,5.90
2019-01-13T13:35:47.523Z,6.63
2019-01-13T13:40:53.616Z,6.90
2019-01-13T13:45:59.650Z,7.03
2019-01-13T13:51:06.799Z,6.50
2019-01-13T13:56:12.689Z,6.27
2019-01-13T14:01:18.109Z,5.70
2019-01-13T14:06:24.816Z,5.40
2019-01-13T14:11:32.178Z,5.30
2019-01-13T14:16:46.233Z,5.20
2019-01-13T14:21:52.651Z,5.10
2019-01-13T14:26:59.632Z,5.37
2019-01-13T14:32:09.332Z,5.23
2019-01-13T14:37:15.852Z,5.73
2019-01-13T14:42:22.014Z,4.97
2019-01-13T14:47:27.694Z,5.60
2019-01-13T14:52:33.635Z,4.87
2019-01-13T14:57:39.973Z,5.20
2019-01-13T15:02:45.736Z,4.37
2019-01-13T15:07:51.278Z,3.97
2019-01-13T15:12:57.721Z,4.33
2019-01-13T15:18:04.845Z,4.43
2019-01-13T15:23:15.707Z,4.57
2019-01-13T15:28:21.158Z,4.53
2019-01-13T15:33:28.208Z,5.20
2019-01-13T15:38:44.675Z,5.80
2019-01-13T15:43:51.300Z,6.87
2019-01-13T15:48:57.832Z,7.13
2019-01-13T15:54:04.118Z,6.90
2019-01-13T15:59:11.083Z,7.53
2019-01-13T16:04:18.122Z,6.80
2019-01-13T16:09:24.929Z,7.87
2019-01-13T16:14:30.548Z,7.07
2019-01-13T16:23:43.391Z,7.63
2019-01-13T16:28:50.232Z,8.30
2019-01-13T16:33:55.750Z,7.50
2019-01-13T16:39:01.076Z,7.90
2019-01-13T16:44:07.182Z,7.30
2019-01-13T16:49:13.294Z,6.63
2019-01-13T16:54:20.113Z,7.43
2019-01-13T16:59:26.364Z,7.17
2019-01-13T17:04:33.196Z,6.13
2019-01-13T17:09:38.737Z,6.30
2019-01-13T17:14:45.094Z,6.70
2019-01-13T17:19:51.326Z,6.10
2019-01-13T17:24:58.811Z,6.57
2019-01-13T17:30:05.807Z,5.67
2019-01-13T17:35:12.416Z,6.80
2019-01-13T17:40:21.426Z,5.83
2019-01-13T17:45:31.006Z,2.10
2019-01-13T17:50:36.805Z,1.70
2019-01-13T17:55:42.162Z,1.30
2019-01-13T18:00:52.550Z,1.20
2019-01-13T18:05:58.285Z,1.30
2019-01-13T18:11:03.986Z,1.10
2019-01-13T18:16:10.291Z,1.63
2019-01-13T18:21:16.550Z,1.30
2019-01-13T18:26:23.026Z,1.23
2019-01-13T18:31:30.866Z,1.40
2019-01-13T18:36:36.631Z,2.17
2019-01-13T18:41:42.169Z,2.00
2019-01-13T18:46:49.171Z,1.97
2019-01-13T18:51:55.946Z,2.27
2019-01-13T18:57:06.584Z,3.03
2019-01-13T19:02:12.866Z,2.10
2019-01-13T19:07:21.547Z,2.10
2019-01-13T19:12:28.552Z,1.80
2019-01-13T19:17:34.883Z,2.70
2019-01-13T19:22:42.432Z,2.07
2019-01-13T19:27:49.362Z,2.63
2019-01-13T19:32:56.008Z,2.23
2019-01-13T19:38:03.383Z,2.47
2019-01-13T19:43:10.146Z,2.70
2019-01-13T19:48:16.599Z,3.40
2019-01-13T19:53:22.986Z,2.40
2019-01-13T19:58:28.670Z,2.43
2019-01-13T20:03:35.232Z,2.43
2019-01-13T20:08:42.050Z,2.97
2019-01-13T20:13:51.310Z,2.33
2019-01-13T20:19:02.469Z,3.10
2019-01-13T20:24:08.820Z,3.00
2019-01-13T20:29:15.453Z,2.93
2019-01-13T20:34:22.798Z,2.80
2019-01-13T20:39:30.734Z,2.90
2019-01-13T20:44:38.615Z,2.37
2019-01-13T20:49:44.487Z,2.97
2019-01-13T20:54:51.154Z,2.60
2019-01-13T20:59:57.895Z,3.20
2019-01-13T21:05:05.172Z,2.80
2019-01-13T21:10:13.720Z,2.63
2019-01-13T21:15:23.757Z,3.23
2019-01-13T21:20:30.275Z,3.00
2019-01-13T21:25:36.816Z,2.80
2019-01-13T21:30:42.017Z,3.17
2019-01-13T21:35:48.381Z,3.40
2019-01-13T21:40:55.363Z,2.90
2019-01-13T21:46:01.068Z,3.30
2019-01-13T21:51:08.613Z,3.00
2019-01-13T21:56:14.882Z,2.80
2019-01-13T22:01:21.201Z,3.00
2019-01-13T22:06:27.221Z,3.63
2019-01-13T22:11:59.683Z,2.57
2019-01-13T22:17:06.008Z,2.37
2019-01-13T22:22:11.636Z,2.87
2019-01-13T22:27:17.475Z,3.07
2019-01-13T22:32:23.646Z,2.33
2019-01-13T22:37:30.017Z,2.77
2019-01-13T22:42:37.403Z,2.67
2019-01-13T22:47:43.048Z,2.93
2019-01-13T22:52:50.318Z,2.87
2019-01-13T22:57:56.053Z,2.30
2019-01-13T23:03:02.744Z,2.60
2019-01-13T23:08:08.953Z,1.93
2019-01-13T23:13:15.080Z,1.37
2019-01-13T23:18:21.634Z,1.80
2019-01-13T23:23:27.338Z,1.73
2019-01-13T23:28:33.884Z,1.50
2019-01-13T23:33:40.204Z,2.10
2019-01-13T23:38:46.720Z,1.70
2019-01-13T23:43:52.594Z,2.50
2019-01-13T23:48:59.415Z,1.97
2019-01-13T23:54:05.065Z,1.80
2019-01-13T23:59:11.193Z,2.37
